Primrose, Nebraska
Current Conditions -  °F | °C
As of 4:15 AM on Saturday 20 Dec 2014 (Local Time) from KBVN Reporting Station
Haze Haze  
Wind Chill: 27°   Ceiling: 300
Heat Index: 32°   Visibility: 2.5mi
Dew Point: 30°   Wind: 5mph
Humidity: 93%   Direction: 200°SSW
Pressure: 30.04"   Gusts: NA
Location:  41.62°N, 98.24°W
Report Text: KBVN 201015Z AUTO 20004KT 2 1/2SM BR OVC003 00/M01 A3004 RMK AO2 T00001010
Loading
Personal Weather Stations






























Interactive Weather Map New forecast layout! Learn more

10-Day Weather Forecast

Advertisements
Track Severe Weather on mobile